etsfs.com

SPEED LOG BR GSoares

SPEED LOG BR

Online ETSFS
  • Iniciou dia:: 2019-12-02 as :23:27:09
  • Finalizou dia: as:00:22:23
  • Saiu de:Gdańsk Empresa: Sanbuilders
  • Para: Banská Bystrica Empresa: Tree-ET
  • Carga:Carregadeiras Pesando: 23 t. Frete :33822
  • Código Viagem:1805926
  • Fabricante:Mercedes-Benz Modelo:Actros
  • Combustivel Inicio/Fim: 529 L / 462 L / Consumo: 314 L - Media 2.17 KM/L
  • Odometro Inicio/Fim: 285365 / 286046
  • Distancia Estimada 681 Km Distancia Balsa: 0
  • km Rodado: 681 Km - Ponto$ : $34.1
  • Tempo Total da Viagem 55.00 Min. / Média de KM/Min : 12.38
Histórico Viagem
Data H.Jogo Vel. Odômetro RPM Marcha Diesel Engine Cabine Pneus Chassis Trailer
02/12/2019-23:27:06 17:11 0 285365 551.0292 -2 529 0 0 0 0 0 0
02/12/2019-23:29:55 17:28 0 285366 550 0 528 0 0 0 0 0 0
02/12/2019-23:33:19 17:48 49 285395 1091.427 10 516 0 0 0 0 0 0
02/12/2019-23:36:14 18:05 90 285425 1253.467 12 500 0 0 0 0 0 0
02/12/2019-23:37:18 18:12 75 285455 1039.97 12 494 0 0 0 0 0 0
02/12/2019-23:45:15 19:00 80 285485 1449.174 11 471 0 0 0 0 0 0
02/12/2019-23:46:21 19:06 68 285515 1504.135 10 460 0 0 0 0 0 0
02/12/2019-23:47:50 19:15 83 285545 1177.702 12 444 0 0 0 0 0 0
02/12/2019-23:49:00 19:22 86 285575 1196.106 12 436 0 0 0 0 0 0
02/12/2019-23:50:11 19:29 90 285605 1255.149 12 427 0 0 0 0 0 0
02/12/2019-23:51:17 19:36 90 285635 1253.482 12 415 0 0 0 0 0 0
02/12/2019-23:52:21 19:42 85 285665 1179.913 12 406 0 0 0 0 0 0
02/12/2019-23:52:50 19:45 38 285675 1119.107 9 406 0 0 0 0 1 1
02/12/2019-23:52:50 19:45 38 285675 1119.107 9 406 0 0 0 0 1 1
02/12/2019-23:55:56 20:04 22 285695 1057.772 7 402 0 0 0 0 1 1
02/12/2019-23:57:29 20:13 90 285725 1259.616 12 386 0 0 0 0 1 1
02/12/2019-23:59:07 20:23 65 285755 924.5724 12 371 0 0 0 0 1 1
03/12/2019-00:00:26 20:31 78 285785 1411.39 11 353 0 0 0 1 1 1
03/12/2019-00:04:17 20:54 81 285815 1142.765 12 581 0 0 0 1 1 1
03/12/2019-00:05:32 21:01 51 285845 1163.242 10 566 0 0 0 1 1 1
03/12/2019-00:09:14 21:23 84 285875 1163.743 12 551 0 0 0 1 1 1
03/12/2019-00:11:31 21:37 84 285905 1189.154 12 533 0 0 0 1 1 1
03/12/2019-00:12:42 21:44 59 285935 1313.039 10 521 0 0 0 1 1 1
03/12/2019-00:16:30 22:07 41 285965 1546.78 8 491 0 0 0 1 1 1
03/12/2019-00:17:55 22:16 75 285995 1338.745 11 484 0 0 0 1 1 1
03/12/2019-00:19:13 22:23 57 286025 1272.055 10 478 0 0 0 1 1 1
03/12/2019-00:20:24 22:30 45 286043 1284.807 9 463 0 0 0 1 1 1
03/12/2019-00:22:25 22:42 0 286046 0 0 462 0 0 0 1 1 0
Multas
Data Jogo Hora Jogo Data Hora Limite Tolerância Vel. Multa
Não existe Multa

Sobre nós

Pensando na facilidade e comodidade de criar sua empresa virtual e armazenar seus registros, o etsfs passou a oferecer um aplicativo que ao executá-lo juntamente com um simulador descrito no menu,você poderá registrar suas viagens automaticamente em nosso site sem nenhum problema,FAÇA SEU REGISTRO!

Redes Sociais
Doações

Contatos